sensor_id;sensor_type;location;lat;lon;timestamp;temperature;humidity
73252;DHT22;61473;50.834;4.552;2022-10-16T00:01:08;22.60;54.60
73252;DHT22;61473;50.834;4.552;2022-10-16T00:03:34;22.70;54.60
73252;DHT22;61473;50.834;4.552;2022-10-16T00:06:01;22.70;54.60
73252;DHT22;61473;50.834;4.552;2022-10-16T00:08:27;22.60;54.60
73252;DHT22;61473;50.834;4.552;2022-10-16T00:10:58;22.60;54.60
73252;DHT22;61473;50.834;4.552;2022-10-16T00:13:24;22.60;54.60
73252;DHT22;61473;50.834;4.552;2022-10-16T00:15:49;22.70;54.70
73252;DHT22;61473;50.834;4.552;2022-10-16T00:18:15;22.60;54.60
73252;DHT22;61473;50.834;4.552;2022-10-16T00:20:41;22.70;54.70
73252;DHT22;61473;50.834;4.552;2022-10-16T00:23:06;22.60;54.60
73252;DHT22;61473;50.834;4.552;2022-10-16T00:25:32;22.60;54.60
73252;DHT22;61473;50.834;4.552;2022-10-16T00:27:59;22.60;54.60
73252;DHT22;61473;50.834;4.552;2022-10-16T00:30:25;22.60;54.60
73252;DHT22;61473;50.834;4.552;2022-10-16T00:32:53;22.60;54.60
73252;DHT22;61473;50.834;4.552;2022-10-16T00:35:19;22.60;54.60
73252;DHT22;61473;50.834;4.552;2022-10-16T00:37:44;22.60;54.60
73252;DHT22;61473;50.834;4.552;2022-10-16T00:40:10;22.60;54.60
73252;DHT22;61473;50.834;4.552;2022-10-16T00:42:36;22.60;54.60
73252;DHT22;61473;50.834;4.552;2022-10-16T00:45:02;22.60;54.60
73252;DHT22;61473;50.834;4.552;2022-10-16T00:47:43;22.60;54.60
73252;DHT22;61473;50.834;4.552;2022-10-16T00:50:42;22.60;54.60
73252;DHT22;61473;50.834;4.552;2022-10-16T00:53:10;22.60;54.60
73252;DHT22;61473;50.834;4.552;2022-10-16T00:56:10;22.60;54.50
73252;DHT22;61473;50.834;4.552;2022-10-16T00:58:36;22.60;54.60
73252;DHT22;61473;50.834;4.552;2022-10-16T01:01:02;22.60;54.60
73252;DHT22;61473;50.834;4.552;2022-10-16T01:03:31;22.60;54.60
73252;DHT22;61473;50.834;4.552;2022-10-16T01:08:36;22.60;54.60
73252;DHT22;61473;50.834;4.552;2022-10-16T01:13:43;22.60;54.60
73252;DHT22;61473;50.834;4.552;2022-10-16T01:16:35;22.60;54.60
73252;DHT22;61473;50.834;4.552;2022-10-16T01:19:31;22.60;54.60
73252;DHT22;61473;50.834;4.552;2022-10-16T01:22:01;22.60;54.60
73252;DHT22;61473;50.834;4.552;2022-10-16T01:24:41;22.50;54.60
73252;DHT22;61473;50.834;4.552;2022-10-16T01:27:14;22.60;54.60
73252;DHT22;61473;50.834;4.552;2022-10-16T01:30:12;22.60;54.60
73252;DHT22;61473;50.834;4.552;2022-10-16T01:32:52;22.50;54.50
73252;DHT22;61473;50.834;4.552;2022-10-16T01:35:30;22.60;54.60
73252;DHT22;61473;50.834;4.552;2022-10-16T01:38:25;22.60;54.60
73252;DHT22;61473;50.834;4.552;2022-10-16T01:40:58;22.60;54.60
73252;DHT22;61473;50.834;4.552;2022-10-16T01:43:33;22.50;54.50
73252;DHT22;61473;50.834;4.552;2022-10-16T01:46:02;22.60;54.60
73252;DHT22;61473;50.834;4.552;2022-10-16T01:48:29;22.50;54.50
73252;DHT22;61473;50.834;4.552;2022-10-16T01:51:11;22.60;54.60
73252;DHT22;61473;50.834;4.552;2022-10-16T01:53:39;22.50;54.60
73252;DHT22;61473;50.834;4.552;2022-10-16T01:56:09;22.60;54.60
73252;DHT22;61473;50.834;4.552;2022-10-16T01:58:41;22.50;55.30
73252;DHT22;61473;50.834;4.552;2022-10-16T02:01:09;22.50;54.60
73252;DHT22;61473;50.834;4.552;2022-10-16T02:03:38;22.50;54.60
73252;DHT22;61473;50.834;4.552;2022-10-16T02:06:06;22.50;54.60
73252;DHT22;61473;50.834;4.552;2022-10-16T02:08:32;22.60;54.60
73252;DHT22;61473;50.834;4.552;2022-10-16T02:10:59;22.60;54.60
73252;DHT22;61473;50.834;4.552;2022-10-16T02:13:31;22.60;54.60
73252;DHT22;61473;50.834;4.552;2022-10-16T02:15:58;22.60;54.60
73252;DHT22;61473;50.834;4.552;2022-10-16T02:18:24;22.50;54.60
73252;DHT22;61473;50.834;4.552;2022-10-16T02:26:20;22.50;54.60
73252;DHT22;61473;50.834;4.552;2022-10-16T02:28:53;22.50;54.60
73252;DHT22;61473;50.834;4.552;2022-10-16T02:31:25;22.50;54.60
73252;DHT22;61473;50.834;4.552;2022-10-16T02:33:55;22.50;54.60
73252;DHT22;61473;50.834;4.552;2022-10-16T02:36:23;22.50;54.60
73252;DHT22;61473;50.834;4.552;2022-10-16T02:38:49;22.50;54.60
73252;DHT22;61473;50.834;4.552;2022-10-16T02:41:15;22.50;54.60
73252;DHT22;61473;50.834;4.552;2022-10-16T02:43:41;22.50;54.60
73252;DHT22;61473;50.834;4.552;2022-10-16T02:46:07;22.50;54.60
73252;DHT22;61473;50.834;4.552;2022-10-16T02:48:33;22.50;54.60
73252;DHT22;61473;50.834;4.552;2022-10-16T02:50:58;22.50;55.30
73252;DHT22;61473;50.834;4.552;2022-10-16T02:53:24;22.50;54.60
73252;DHT22;61473;50.834;4.552;2022-10-16T02:55:50;22.50;54.60
73252;DHT22;61473;50.834;4.552;2022-10-16T02:58:15;22.50;54.60
73252;DHT22;61473;50.834;4.552;2022-10-16T03:00:41;22.50;54.70
73252;DHT22;61473;50.834;4.552;2022-10-16T03:03:07;22.50;54.60
73252;DHT22;61473;50.834;4.552;2022-10-16T03:05:33;22.50;54.70
73252;DHT22;61473;50.834;4.552;2022-10-16T03:07:58;22.50;54.60
73252;DHT22;61473;50.834;4.552;2022-10-16T03:10:26;22.40;54.60
73252;DHT22;61473;50.834;4.552;2022-10-16T03:12:52;22.50;54.60
73252;DHT22;61473;50.834;4.552;2022-10-16T03:15:18;22.50;54.60
73252;DHT22;61473;50.834;4.552;2022-10-16T03:17:44;22.50;54.60
73252;DHT22;61473;50.834;4.552;2022-10-16T03:20:10;22.50;54.60
73252;DHT22;61473;50.834;4.552;2022-10-16T03:22:35;22.50;54.70
73252;DHT22;61473;50.834;4.552;2022-10-16T03:25:01;22.50;54.70
73252;DHT22;61473;50.834;4.552;2022-10-16T03:27:27;22.50;54.60
73252;DHT22;61473;50.834;4.552;2022-10-16T03:29:52;22.50;54.60
73252;DHT22;61473;50.834;4.552;2022-10-16T03:32:18;22.40;54.60
73252;DHT22;61473;50.834;4.552;2022-10-16T03:34:45;22.40;54.60
73252;DHT22;61473;50.834;4.552;2022-10-16T03:37:11;22.50;54.70
73252;DHT22;61473;50.834;4.552;2022-10-16T03:39:36;22.40;54.60
73252;DHT22;61473;50.834;4.552;2022-10-16T03:42:02;22.40;54.60
73252;DHT22;61473;50.834;4.552;2022-10-16T03:44:28;22.50;54.60
73252;DHT22;61473;50.834;4.552;2022-10-16T03:46:53;22.50;54.70
73252;DHT22;61473;50.834;4.552;2022-10-16T03:49:19;22.50;54.70
73252;DHT22;61473;50.834;4.552;2022-10-16T03:51:45;22.50;54.70
73252;DHT22;61473;50.834;4.552;2022-10-16T03:54:10;22.50;54.70
73252;DHT22;61473;50.834;4.552;2022-10-16T03:56:36;22.50;54.70
73252;DHT22;61473;50.834;4.552;2022-10-16T03:59:02;22.50;54.70
73252;DHT22;61473;50.834;4.552;2022-10-16T04:01:27;22.40;54.60
73252;DHT22;61473;50.834;4.552;2022-10-16T04:03:53;22.40;54.60
73252;DHT22;61473;50.834;4.552;2022-10-16T04:06:19;22.40;54.60
73252;DHT22;61473;50.834;4.552;2022-10-16T04:08:44;22.40;54.60
73252;DHT22;61473;50.834;4.552;2022-10-16T04:11:10;22.40;54.60
73252;DHT22;61473;50.834;4.552;2022-10-16T04:13:36;22.40;54.70
73252;DHT22;61473;50.834;4.552;2022-10-16T04:16:02;22.40;54.60
73252;DHT22;61473;50.834;4.552;2022-10-16T04:18:28;22.50;54.70
73252;DHT22;61473;50.834;4.552;2022-10-16T04:20:54;22.50;54.80
73252;DHT22;61473;50.834;4.552;2022-10-16T04:23:20;22.50;54.70
73252;DHT22;61473;50.834;4.552;2022-10-16T04:25:46;22.50;55.40
73252;DHT22;61473;50.834;4.552;2022-10-16T04:28:11;22.40;54.70
73252;DHT22;61473;50.834;4.552;2022-10-16T04:30:38;22.40;54.60
73252;DHT22;61473;50.834;4.552;2022-10-16T04:33:04;22.40;54.70
73252;DHT22;61473;50.834;4.552;2022-10-16T04:35:30;22.40;54.70
73252;DHT22;61473;50.834;4.552;2022-10-16T04:37:57;22.40;54.70
73252;DHT22;61473;50.834;4.552;2022-10-16T04:40:23;22.40;54.70
73252;DHT22;61473;50.834;4.552;2022-10-16T04:42:49;22.40;54.70
73252;DHT22;61473;50.834;4.552;2022-10-16T04:45:15;22.40;54.70
73252;DHT22;61473;50.834;4.552;2022-10-16T04:47:41;22.40;54.80
73252;DHT22;61473;50.834;4.552;2022-10-16T04:50:07;22.40;54.70
73252;DHT22;61473;50.834;4.552;2022-10-16T04:52:33;22.40;54.80
73252;DHT22;61473;50.834;4.552;2022-10-16T04:54:59;22.40;54.70
73252;DHT22;61473;50.834;4.552;2022-10-16T04:57:28;22.40;54.70
73252;DHT22;61473;50.834;4.552;2022-10-16T04:59:54;22.40;54.80
73252;DHT22;61473;50.834;4.552;2022-10-16T05:02:20;22.40;54.80
73252;DHT22;61473;50.834;4.552;2022-10-16T05:04:45;22.40;54.80
73252;DHT22;61473;50.834;4.552;2022-10-16T05:07:11;22.40;54.70
73252;DHT22;61473;50.834;4.552;2022-10-16T05:09:37;22.40;54.80
73252;DHT22;61473;50.834;4.552;2022-10-16T05:12:02;22.40;54.80
73252;DHT22;61473;50.834;4.552;2022-10-16T05:14:29;22.30;54.80
73252;DHT22;61473;50.834;4.552;2022-10-16T05:16:54;22.40;54.80
73252;DHT22;61473;50.834;4.552;2022-10-16T05:19:20;22.40;54.80
73252;DHT22;61473;50.834;4.552;2022-10-16T05:21:46;22.40;54.80
73252;DHT22;61473;50.834;4.552;2022-10-16T05:24:11;22.40;54.80
73252;DHT22;61473;50.834;4.552;2022-10-16T05:27:05;22.40;54.80
73252;DHT22;61473;50.834;4.552;2022-10-16T05:29:31;22.40;54.80
73252;DHT22;61473;50.834;4.552;2022-10-16T05:31:57;22.30;54.80
73252;DHT22;61473;50.834;4.552;2022-10-16T05:34:22;22.40;54.80
73252;DHT22;61473;50.834;4.552;2022-10-16T05:36:48;22.40;55.40
73252;DHT22;61473;50.834;4.552;2022-10-16T05:39:15;22.40;54.80
73252;DHT22;61473;50.834;4.552;2022-10-16T05:41:41;22.40;54.80
73252;DHT22;61473;50.834;4.552;2022-10-16T05:44:06;22.40;54.80
73252;DHT22;61473;50.834;4.552;2022-10-16T05:46:32;22.40;54.80
73252;DHT22;61473;50.834;4.552;2022-10-16T05:48:58;22.40;54.80
73252;DHT22;61473;50.834;4.552;2022-10-16T05:51:24;22.30;54.80
73252;DHT22;61473;50.834;4.552;2022-10-16T05:53:50;22.30;54.80
73252;DHT22;61473;50.834;4.552;2022-10-16T05:56:15;22.40;54.80
73252;DHT22;61473;50.834;4.552;2022-10-16T05:58:41;22.40;54.80
73252;DHT22;61473;50.834;4.552;2022-10-16T06:01:11;22.40;54.80
73252;DHT22;61473;50.834;4.552;2022-10-16T06:03:37;22.40;54.80
73252;DHT22;61473;50.834;4.552;2022-10-16T06:08:34;22.30;54.80
73252;DHT22;61473;50.834;4.552;2022-10-16T06:11:05;22.30;54.80
73252;DHT22;61473;50.834;4.552;2022-10-16T06:13:31;22.30;54.80
73252;DHT22;61473;50.834;4.552;2022-10-16T06:15:58;22.30;54.80
73252;DHT22;61473;50.834;4.552;2022-10-16T06:18:25;22.30;54.80
73252;DHT22;61473;50.834;4.552;2022-10-16T06:20:51;22.40;54.80
73252;DHT22;61473;50.834;4.552;2022-10-16T06:23:18;22.30;54.80
73252;DHT22;61473;50.834;4.552;2022-10-16T06:25:43;22.40;54.80
73252;DHT22;61473;50.834;4.552;2022-10-16T06:28:09;22.40;55.50
73252;DHT22;61473;50.834;4.552;2022-10-16T06:30:34;22.30;54.80
73252;DHT22;61473;50.834;4.552;2022-10-16T06:33:00;22.30;54.90
73252;DHT22;61473;50.834;4.552;2022-10-16T06:35:25;22.30;54.80
73252;DHT22;61473;50.834;4.552;2022-10-16T06:37:53;22.30;54.80
73252;DHT22;61473;50.834;4.552;2022-10-16T06:40:18;22.30;54.80
73252;DHT22;61473;50.834;4.552;2022-10-16T06:42:44;22.30;54.80
73252;DHT22;61473;50.834;4.552;2022-10-16T06:45:10;22.40;54.90
73252;DHT22;61473;50.834;4.552;2022-10-16T06:47:36;22.30;54.80
73252;DHT22;61473;50.834;4.552;2022-10-16T06:50:03;22.30;54.80
73252;DHT22;61473;50.834;4.552;2022-10-16T06:52:29;22.30;54.80
73252;DHT22;61473;50.834;4.552;2022-10-16T06:54:55;22.30;54.90
73252;DHT22;61473;50.834;4.552;2022-10-16T06:57:20;22.30;55.00
73252;DHT22;61473;50.834;4.552;2022-10-16T06:59:46;22.30;54.80
73252;DHT22;61473;50.834;4.552;2022-10-16T07:02:12;22.40;54.80
73252;DHT22;61473;50.834;4.552;2022-10-16T07:04:37;22.40;54.90
73252;DHT22;61473;50.834;4.552;2022-10-16T07:07:03;22.40;54.80
73252;DHT22;61473;50.834;4.552;2022-10-16T07:09:29;22.50;54.70
73252;DHT22;61473;50.834;4.552;2022-10-16T07:11:54;22.50;54.60
73252;DHT22;61473;50.834;4.552;2022-10-16T07:14:21;22.50;54.60
73252;DHT22;61473;50.834;4.552;2022-10-16T07:16:47;22.50;54.50
73252;DHT22;61473;50.834;4.552;2022-10-16T07:19:14;22.50;54.60
73252;DHT22;61473;50.834;4.552;2022-10-16T07:21:41;22.50;54.50
73252;DHT22;61473;50.834;4.552;2022-10-16T07:24:12;22.60;55.20
73252;DHT22;61473;50.834;4.552;2022-10-16T07:26:39;22.60;54.50
73252;DHT22;61473;50.834;4.552;2022-10-16T07:29:16;22.60;54.50
73252;DHT22;61473;50.834;4.552;2022-10-16T07:31:42;22.60;54.50
73252;DHT22;61473;50.834;4.552;2022-10-16T07:34:09;22.60;54.50
73252;DHT22;61473;50.834;4.552;2022-10-16T07:36:35;22.60;55.10
73252;DHT22;61473;50.834;4.552;2022-10-16T07:39:00;22.60;54.50
73252;DHT22;61473;50.834;4.552;2022-10-16T07:41:26;22.60;54.40
73252;DHT22;61473;50.834;4.552;2022-10-16T07:43:53;22.60;54.40
73252;DHT22;61473;50.834;4.552;2022-10-16T07:46:21;22.60;54.40
73252;DHT22;61473;50.834;4.552;2022-10-16T07:48:47;22.60;54.40
73252;DHT22;61473;50.834;4.552;2022-10-16T07:51:15;22.70;54.50
73252;DHT22;61473;50.834;4.552;2022-10-16T07:53:42;22.70;54.50
73252;DHT22;61473;50.834;4.552;2022-10-16T07:56:08;22.70;54.50
73252;DHT22;61473;50.834;4.552;2022-10-16T07:58:34;22.70;54.50
73252;DHT22;61473;50.834;4.552;2022-10-16T08:01:11;22.70;54.50
73252;DHT22;61473;50.834;4.552;2022-10-16T08:03:37;22.70;54.50
73252;DHT22;61473;50.834;4.552;2022-10-16T08:06:03;22.70;55.10
73252;DHT22;61473;50.834;4.552;2022-10-16T08:08:30;22.70;54.40
73252;DHT22;61473;50.834;4.552;2022-10-16T08:10:55;22.80;54.50
73252;DHT22;61473;50.834;4.552;2022-10-16T08:13:21;22.80;54.50
73252;DHT22;61473;50.834;4.552;2022-10-16T08:15:47;22.80;54.50
73252;DHT22;61473;50.834;4.552;2022-10-16T08:18:15;22.80;54.50
73252;DHT22;61473;50.834;4.552;2022-10-16T08:20:42;22.80;54.50
73252;DHT22;61473;50.834;4.552;2022-10-16T08:23:13;22.80;54.50
73252;DHT22;61473;50.834;4.552;2022-10-16T08:25:39;22.80;54.50
73252;DHT22;61473;50.834;4.552;2022-10-16T08:28:07;22.80;54.50
73252;DHT22;61473;50.834;4.552;2022-10-16T08:30:33;22.90;54.60
73252;DHT22;61473;50.834;4.552;2022-10-16T08:32:59;22.90;54.60
73252;DHT22;61473;50.834;4.552;2022-10-16T08:35:25;22.90;54.60
73252;DHT22;61473;50.834;4.552;2022-10-16T08:37:50;22.90;54.60
73252;DHT22;61473;50.834;4.552;2022-10-16T08:40:20;22.90;54.60
73252;DHT22;61473;50.834;4.552;2022-10-16T08:45:51;22.90;54.60
73252;DHT22;61473;50.834;4.552;2022-10-16T08:48:30;22.90;54.60
73252;DHT22;61473;50.834;4.552;2022-10-16T08:51:01;23.00;54.60
73252;DHT22;61473;50.834;4.552;2022-10-16T08:53:31;23.00;54.60
73252;DHT22;61473;50.834;4.552;2022-10-16T08:55:59;23.00;54.70
73252;DHT22;61473;50.834;4.552;2022-10-16T08:58:29;23.00;54.60
73252;DHT22;61473;50.834;4.552;2022-10-16T09:01:01;23.00;54.60
73252;DHT22;61473;50.834;4.552;2022-10-16T09:03:37;23.00;54.60
73252;DHT22;61473;50.834;4.552;2022-10-16T09:16:46;23.10;54.70
73252;DHT22;61473;50.834;4.552;2022-10-16T09:19:38;23.10;54.70
73252;DHT22;61473;50.834;4.552;2022-10-16T09:22:14;23.10;54.70
73252;DHT22;61473;50.834;4.552;2022-10-16T09:24:41;23.10;54.70
73252;DHT22;61473;50.834;4.552;2022-10-16T09:27:11;23.10;54.70
73252;DHT22;61473;50.834;4.552;2022-10-16T09:29:38;23.10;54.70
73252;DHT22;61473;50.834;4.552;2022-10-16T09:32:16;23.10;54.70
73252;DHT22;61473;50.834;4.552;2022-10-16T09:34:47;23.20;54.70
73252;DHT22;61473;50.834;4.552;2022-10-16T09:37:15;23.10;54.70
73252;DHT22;61473;50.834;4.552;2022-10-16T09:39:51;23.20;54.80
73252;DHT22;61473;50.834;4.552;2022-10-16T09:42:27;23.20;54.80
73252;DHT22;61473;50.834;4.552;2022-10-16T09:44:54;23.20;54.80
73252;DHT22;61473;50.834;4.552;2022-10-16T09:47:30;23.20;54.80
73252;DHT22;61473;50.834;4.552;2022-10-16T09:49:57;23.20;54.80
73252;DHT22;61473;50.834;4.552;2022-10-16T09:52:25;23.20;54.80
73252;DHT22;61473;50.834;4.552;2022-10-16T09:54:58;23.20;54.80
73252;DHT22;61473;50.834;4.552;2022-10-16T09:57:24;23.20;54.80
73252;DHT22;61473;50.834;4.552;2022-10-16T09:59:54;23.30;54.80
73252;DHT22;61473;50.834;4.552;2022-10-16T10:02:33;23.30;54.90
73252;DHT22;61473;50.834;4.552;2022-10-16T10:05:00;23.30;54.80
73252;DHT22;61473;50.834;4.552;2022-10-16T10:07:35;23.30;54.90
73252;DHT22;61473;50.834;4.552;2022-10-16T10:10:05;23.30;54.80
73252;DHT22;61473;50.834;4.552;2022-10-16T10:12:32;23.30;54.90
73252;DHT22;61473;50.834;4.552;2022-10-16T10:15:20;23.30;54.90
73252;DHT22;61473;50.834;4.552;2022-10-16T10:17:52;23.30;54.80
73252;DHT22;61473;50.834;4.552;2022-10-16T10:20:31;23.30;54.80
73252;DHT22;61473;50.834;4.552;2022-10-16T10:23:00;23.30;54.80
73252;DHT22;61473;50.834;4.552;2022-10-16T10:25:55;23.40;54.90
73252;DHT22;61473;50.834;4.552;2022-10-16T10:46:42;23.50;55.10
73252;DHT22;61473;50.834;4.552;2022-10-16T10:54:37;23.50;55.10
73252;DHT22;61473;50.834;4.552;2022-10-16T11:07:57;23.50;55.10
73252;DHT22;61473;50.834;4.552;2022-10-16T11:10:45;23.50;55.10
73252;DHT22;61473;50.834;4.552;2022-10-16T11:15:55;23.50;55.10
73252;DHT22;61473;50.834;4.552;2022-10-16T11:18:32;23.50;55.10
73252;DHT22;61473;50.834;4.552;2022-10-16T11:21:10;23.50;55.10
73252;DHT22;61473;50.834;4.552;2022-10-16T11:23:58;23.50;55.00
73252;DHT22;61473;50.834;4.552;2022-10-16T11:26:28;23.50;55.00
73252;DHT22;61473;50.834;4.552;2022-10-16T11:28:56;23.50;55.00
73252;DHT22;61473;50.834;4.552;2022-10-16T11:31:57;23.50;55.00
73252;DHT22;61473;50.834;4.552;2022-10-16T11:34:36;23.50;55.00
73252;DHT22;61473;50.834;4.552;2022-10-16T11:37:24;23.50;54.90
73252;DHT22;61473;50.834;4.552;2022-10-16T11:39:54;23.50;54.90
73252;DHT22;61473;50.834;4.552;2022-10-16T11:42:24;23.50;54.90
73252;DHT22;61473;50.834;4.552;2022-10-16T11:44:57;23.50;54.90
73252;DHT22;61473;50.834;4.552;2022-10-16T11:55:41;23.50;54.90
73252;DHT22;61473;50.834;4.552;2022-10-16T11:58:25;23.50;54.90
73252;DHT22;61473;50.834;4.552;2022-10-16T12:01:14;23.50;54.90
73252;DHT22;61473;50.834;4.552;2022-10-16T12:04:29;23.50;54.90
73252;DHT22;61473;50.834;4.552;2022-10-16T12:09:37;23.50;54.90
73252;DHT22;61473;50.834;4.552;2022-10-16T12:12:04;23.50;54.90
73252;DHT22;61473;50.834;4.552;2022-10-16T12:17:34;23.50;54.90
73252;DHT22;61473;50.834;4.552;2022-10-16T12:23:00;23.50;54.90
73252;DHT22;61473;50.834;4.552;2022-10-16T12:28:02;23.50;54.90
73252;DHT22;61473;50.834;4.552;2022-10-16T12:30:30;23.50;54.90
73252;DHT22;61473;50.834;4.552;2022-10-16T12:33:05;23.50;54.90
73252;DHT22;61473;50.834;4.552;2022-10-16T12:35:42;23.50;54.80
73252;DHT22;61473;50.834;4.552;2022-10-16T12:38:16;23.50;54.90
73252;DHT22;61473;50.834;4.552;2022-10-16T12:40:44;23.50;54.90
73252;DHT22;61473;50.834;4.552;2022-10-16T12:43:37;23.50;54.90
73252;DHT22;61473;50.834;4.552;2022-10-16T12:48:36;23.50;54.90
73252;DHT22;61473;50.834;4.552;2022-10-16T12:54:12;23.50;54.80
73252;DHT22;61473;50.834;4.552;2022-10-16T13:05:23;23.50;54.80
73252;DHT22;61473;50.834;4.552;2022-10-16T13:08:24;23.50;54.80
73252;DHT22;61473;50.834;4.552;2022-10-16T13:19:09;23.50;54.70
73252;DHT22;61473;50.834;4.552;2022-10-16T13:27:00;23.50;54.80
73252;DHT22;61473;50.834;4.552;2022-10-16T13:29:33;23.50;54.70
73252;DHT22;61473;50.834;4.552;2022-10-16T13:32:01;23.50;54.70
73252;DHT22;61473;50.834;4.552;2022-10-16T13:34:32;23.50;54.70
73252;DHT22;61473;50.834;4.552;2022-10-16T13:36:57;23.50;54.80
73252;DHT22;61473;50.834;4.552;2022-10-16T13:39:25;23.50;54.80
73252;DHT22;61473;50.834;4.552;2022-10-16T13:42:25;23.50;54.70
73252;DHT22;61473;50.834;4.552;2022-10-16T13:44:53;23.50;54.70
73252;DHT22;61473;50.834;4.552;2022-10-16T13:47:27;23.50;54.70
73252;DHT22;61473;50.834;4.552;2022-10-16T13:52:30;23.50;54.60
73252;DHT22;61473;50.834;4.552;2022-10-16T13:54:56;23.50;54.60
73252;DHT22;61473;50.834;4.552;2022-10-16T13:57:24;23.50;55.40
73252;DHT22;61473;50.834;4.552;2022-10-16T13:59:50;23.50;54.60
73252;DHT22;61473;50.834;4.552;2022-10-16T14:04:47;23.50;54.70
73252;DHT22;61473;50.834;4.552;2022-10-16T14:07:20;23.50;54.60
73252;DHT22;61473;50.834;4.552;2022-10-16T14:09:50;23.50;54.60
73252;DHT22;61473;50.834;4.552;2022-10-16T14:12:16;23.50;54.60
73252;DHT22;61473;50.834;4.552;2022-10-16T14:14:44;23.50;54.60
73252;DHT22;61473;50.834;4.552;2022-10-16T14:17:26;23.50;54.60
73252;DHT22;61473;50.834;4.552;2022-10-16T14:19:54;23.50;54.60
73252;DHT22;61473;50.834;4.552;2022-10-16T14:22:37;23.50;54.60
73252;DHT22;61473;50.834;4.552;2022-10-16T14:25:24;23.50;54.60
73252;DHT22;61473;50.834;4.552;2022-10-16T14:30:26;23.50;54.60
73252;DHT22;61473;50.834;4.552;2022-10-16T14:35:32;23.50;54.60
73252;DHT22;61473;50.834;4.552;2022-10-16T14:38:00;23.50;54.60
73252;DHT22;61473;50.834;4.552;2022-10-16T14:40:29;23.50;54.60
73252;DHT22;61473;50.834;4.552;2022-10-16T14:42:56;23.50;54.60
73252;DHT22;61473;50.834;4.552;2022-10-16T14:45:24;23.50;54.60
73252;DHT22;61473;50.834;4.552;2022-10-16T14:47:57;23.50;54.60
73252;DHT22;61473;50.834;4.552;2022-10-16T14:50:23;23.50;54.60
73252;DHT22;61473;50.834;4.552;2022-10-16T14:52:49;23.50;54.50
73252;DHT22;61473;50.834;4.552;2022-10-16T14:55:16;23.50;54.60
73252;DHT22;61473;50.834;4.552;2022-10-16T14:57:43;23.50;54.60
73252;DHT22;61473;50.834;4.552;2022-10-16T15:00:16;23.50;54.50
73252;DHT22;61473;50.834;4.552;2022-10-16T15:02:42;23.50;54.50
73252;DHT22;61473;50.834;4.552;2022-10-16T15:05:15;23.50;54.60
73252;DHT22;61473;50.834;4.552;2022-10-16T15:07:41;23.50;54.50
73252;DHT22;61473;50.834;4.552;2022-10-16T15:10:07;23.50;54.60
73252;DHT22;61473;50.834;4.552;2022-10-16T15:12:33;23.50;54.50
73252;DHT22;61473;50.834;4.552;2022-10-16T15:14:58;23.50;54.50
73252;DHT22;61473;50.834;4.552;2022-10-16T15:17:24;23.50;54.50
73252;DHT22;61473;50.834;4.552;2022-10-16T15:19:50;23.50;54.50
73252;DHT22;61473;50.834;4.552;2022-10-16T15:22:18;23.50;54.60
73252;DHT22;61473;50.834;4.552;2022-10-16T15:24:44;23.50;54.50
73252;DHT22;61473;50.834;4.552;2022-10-16T15:27:09;23.50;54.50
73252;DHT22;61473;50.834;4.552;2022-10-16T15:29:35;23.50;54.50
73252;DHT22;61473;50.834;4.552;2022-10-16T15:32:01;23.50;54.50
73252;DHT22;61473;50.834;4.552;2022-10-16T15:34:26;23.50;54.50
73252;DHT22;61473;50.834;4.552;2022-10-16T15:36:52;23.50;55.20
73252;DHT22;61473;50.834;4.552;2022-10-16T15:39:19;23.50;54.50
73252;DHT22;61473;50.834;4.552;2022-10-16T15:41:46;23.50;54.50
73252;DHT22;61473;50.834;4.552;2022-10-16T15:44:19;23.50;54.50
73252;DHT22;61473;50.834;4.552;2022-10-16T15:46:45;23.50;54.50
73252;DHT22;61473;50.834;4.552;2022-10-16T15:49:11;23.50;54.50
73252;DHT22;61473;50.834;4.552;2022-10-16T15:51:41;23.50;54.50
73252;DHT22;61473;50.834;4.552;2022-10-16T15:54:08;23.50;54.60
73252;DHT22;61473;50.834;4.552;2022-10-16T15:56:34;23.50;54.50
73252;DHT22;61473;50.834;4.552;2022-10-16T15:59:03;23.50;54.60
73252;DHT22;61473;50.834;4.552;2022-10-16T16:01:34;23.50;54.60
73252;DHT22;61473;50.834;4.552;2022-10-16T16:04:00;23.50;54.60
73252;DHT22;61473;50.834;4.552;2022-10-16T16:06:26;23.50;54.60
73252;DHT22;61473;50.834;4.552;2022-10-16T16:08:52;23.50;54.60
73252;DHT22;61473;50.834;4.552;2022-10-16T16:11:19;23.50;54.50
73252;DHT22;61473;50.834;4.552;2022-10-16T16:13:45;23.50;54.60
73252;DHT22;61473;50.834;4.552;2022-10-16T16:16:13;23.50;54.60
73252;DHT22;61473;50.834;4.552;2022-10-16T16:18:39;23.50;54.60
73252;DHT22;61473;50.834;4.552;2022-10-16T16:21:06;23.50;54.60
73252;DHT22;61473;50.834;4.552;2022-10-16T16:23:32;23.50;54.60
73252;DHT22;61473;50.834;4.552;2022-10-16T16:26:05;23.50;54.60
73252;DHT22;61473;50.834;4.552;2022-10-16T16:28:31;23.50;54.60
73252;DHT22;61473;50.834;4.552;2022-10-16T16:30:57;23.50;54.60
73252;DHT22;61473;50.834;4.552;2022-10-16T16:33:23;23.50;54.60
73252;DHT22;61473;50.834;4.552;2022-10-16T16:35:49;23.50;54.60
73252;DHT22;61473;50.834;4.552;2022-10-16T16:38:15;23.50;54.60
73252;DHT22;61473;50.834;4.552;2022-10-16T16:40:40;23.50;54.60
73252;DHT22;61473;50.834;4.552;2022-10-16T16:43:06;23.50;54.60
73252;DHT22;61473;50.834;4.552;2022-10-16T16:45:35;23.50;54.60
73252;DHT22;61473;50.834;4.552;2022-10-16T16:48:01;23.50;54.60
73252;DHT22;61473;50.834;4.552;2022-10-16T16:50:26;23.50;54.60
73252;DHT22;61473;50.834;4.552;2022-10-16T16:52:52;23.50;54.60
73252;DHT22;61473;50.834;4.552;2022-10-16T16:55:18;23.50;54.60
73252;DHT22;61473;50.834;4.552;2022-10-16T16:57:43;23.50;54.60
73252;DHT22;61473;50.834;4.552;2022-10-16T17:00:09;23.50;54.60
73252;DHT22;61473;50.834;4.552;2022-10-16T17:02:35;23.50;54.80
73252;DHT22;61473;50.834;4.552;2022-10-16T17:05:01;23.50;54.70
73252;DHT22;61473;50.834;4.552;2022-10-16T17:07:31;23.50;54.60
73252;DHT22;61473;50.834;4.552;2022-10-16T17:09:58;23.50;54.60
73252;DHT22;61473;50.834;4.552;2022-10-16T17:12:23;23.50;54.80
73252;DHT22;61473;50.834;4.552;2022-10-16T17:14:50;23.50;54.80
73252;DHT22;61473;50.834;4.552;2022-10-16T17:17:16;23.50;54.90
73252;DHT22;61473;50.834;4.552;2022-10-16T17:19:42;23.50;54.90
73252;DHT22;61473;50.834;4.552;2022-10-16T17:22:07;23.50;54.90
73252;DHT22;61473;50.834;4.552;2022-10-16T17:24:33;23.50;55.00
73252;DHT22;61473;50.834;4.552;2022-10-16T17:26:58;23.50;55.00
73252;DHT22;61473;50.834;4.552;2022-10-16T17:29:24;23.50;55.10
73252;DHT22;61473;50.834;4.552;2022-10-16T17:31:50;23.50;55.00
73252;DHT22;61473;50.834;4.552;2022-10-16T17:34:16;23.50;55.00
73252;DHT22;61473;50.834;4.552;2022-10-16T17:36:42;23.50;55.10
73252;DHT22;61473;50.834;4.552;2022-10-16T17:39:10;23.50;55.10
73252;DHT22;61473;50.834;4.552;2022-10-16T17:41:36;23.50;55.10
73252;DHT22;61473;50.834;4.552;2022-10-16T17:44:03;23.50;55.20